createdAt,value
2023-02-25T00:00:20.140Z,3.23
2023-02-25T00:02:58.989Z,3.21
2023-02-25T00:05:26.333Z,3.24
2023-02-25T00:08:00.025Z,3.25
2023-02-25T00:10:27.066Z,3.18
2023-02-25T00:13:15.979Z,3.23
2023-02-25T00:15:44.276Z,3.21
2023-02-25T00:18:18.018Z,3.10
2023-02-25T00:20:44.740Z,3.06
2023-02-25T00:23:19.012Z,2.99
2023-02-25T00:25:55.852Z,3.19
2023-02-25T00:28:22.749Z,3.18
2023-02-25T00:30:58.498Z,3.18
2023-02-25T00:33:25.767Z,3.20
2023-02-25T00:36:02.531Z,3.20
2023-02-25T00:38:29.693Z,3.18
2023-02-25T00:41:06.890Z,3.14
2023-02-25T00:43:34.471Z,3.28
2023-02-25T00:46:16.238Z,3.29
2023-02-25T00:48:49.036Z,3.25
2023-02-25T00:51:19.465Z,3.27
2023-02-25T00:53:53.056Z,3.24
2023-02-25T00:56:27.011Z,3.26
2023-02-25T00:58:54.127Z,3.18
2023-02-25T01:01:37.061Z,3.27
2023-02-25T01:04:03.994Z,3.24
2023-02-25T01:06:33.052Z,3.21
2023-02-25T01:09:07.099Z,3.25
2023-02-25T01:11:36.417Z,3.22
2023-02-25T01:14:13.033Z,3.23
2023-02-25T01:16:47.048Z,3.21
2023-02-25T01:19:18.411Z,3.25
2023-02-25T01:21:55.051Z,3.26
2023-02-25T01:24:38.083Z,3.26
2023-02-25T01:27:10.992Z,3.32
2023-02-25T01:29:40.575Z,3.29
2023-02-25T01:32:22.744Z,3.35
2023-02-25T01:34:55.994Z,3.33
2023-02-25T01:37:22.802Z,3.36
2023-02-25T01:39:56.019Z,3.33
2023-02-25T01:42:24.403Z,3.26
2023-02-25T01:45:29.039Z,3.35
2023-02-25T01:48:02.310Z,3.34
2023-02-25T01:50:51.013Z,3.34
2023-02-25T01:53:23.805Z,3.30
2023-02-25T01:56:01.021Z,3.25
2023-02-25T01:58:28.099Z,3.25
2023-02-25T02:01:02.151Z,3.26
2023-02-25T02:03:34.263Z,3.20
2023-02-25T02:06:23.410Z,3.24
2023-02-25T02:08:50.648Z,3.27
2023-02-25T02:11:31.054Z,3.18
2023-02-25T02:14:06.088Z,3.18
2023-02-25T02:16:44.718Z,3.22
2023-02-25T02:19:41.036Z,3.15
2023-02-25T02:22:31.036Z,3.10
2023-02-25T02:25:13.127Z,3.17
2023-02-25T02:28:17.306Z,3.17
2023-02-25T02:31:15.308Z,3.22
2023-02-25T02:34:14.059Z,3.25
2023-02-25T02:37:13.197Z,3.30
2023-02-25T02:40:12.073Z,3.33
2023-02-25T02:42:48.761Z,3.34
2023-02-25T02:45:25.106Z,3.35
2023-02-25T02:47:58.318Z,3.35
2023-02-25T02:50:44.110Z,3.35
2023-02-25T02:53:20.320Z,3.34
2023-02-25T02:56:13.000Z,3.30
2023-02-25T02:58:53.123Z,3.30
2023-02-25T03:01:38.150Z,3.22
2023-02-25T03:04:18.147Z,3.23
2023-02-25T03:06:56.058Z,3.20
2023-02-25T03:09:31.163Z,3.15
2023-02-25T03:12:04.201Z,3.13
2023-02-25T03:14:34.104Z,3.10
2023-02-25T03:17:28.061Z,3.12
2023-02-25T03:20:17.355Z,3.13
2023-02-25T03:22:55.026Z,3.07
2023-02-25T03:25:28.080Z,3.15
2023-02-25T03:27:57.246Z,3.07
2023-02-25T03:30:36.189Z,3.15
2023-02-25T03:33:16.210Z,3.09
2023-02-25T03:35:53.084Z,3.19
2023-02-25T03:38:23.831Z,3.20
2023-02-25T03:41:17.787Z,3.23
2023-02-25T03:43:55.179Z,3.17
2023-02-25T03:46:30.140Z,3.27
2023-02-25T03:49:05.706Z,3.30
2023-02-25T03:51:49.187Z,3.31
2023-02-25T03:54:16.854Z,3.34
2023-02-25T03:56:54.167Z,3.38
2023-02-25T03:59:23.861Z,3.41
2023-02-25T04:02:03.658Z,3.43
2023-02-25T04:04:30.472Z,3.40
2023-02-25T04:07:04.122Z,3.35
2023-02-25T04:09:30.799Z,3.37
2023-02-25T04:12:04.067Z,3.41
2023-02-25T04:14:30.909Z,3.48
2023-02-25T04:17:04.327Z,3.48
2023-02-25T04:19:31.221Z,3.48
2023-02-25T04:22:07.174Z,3.45
2023-02-25T04:24:45.612Z,3.47
2023-02-25T04:27:15.767Z,3.39
2023-02-25T04:29:56.121Z,3.36
2023-02-25T04:32:29.178Z,3.37
2023-02-25T04:35:02.163Z,3.34
2023-02-25T04:37:29.982Z,3.29
2023-02-25T04:40:03.214Z,3.35
2023-02-25T04:42:30.034Z,3.41
2023-02-25T04:45:03.171Z,3.38
2023-02-25T04:47:29.858Z,3.28
2023-02-25T04:50:10.201Z,3.27
2023-02-25T04:52:43.490Z,3.20
2023-02-25T04:55:20.183Z,3.11
2023-02-25T04:57:47.343Z,3.06
2023-02-25T05:00:24.249Z,3.02
2023-02-25T05:03:13.269Z,2.96
2023-02-25T05:05:46.177Z,2.98
2023-02-25T05:08:12.916Z,2.94
2023-02-25T05:10:48.231Z,2.83
2023-02-25T05:13:15.003Z,2.91
2023-02-25T05:15:58.265Z,3.02
2023-02-25T05:18:31.240Z,3.04
2023-02-25T05:21:08.565Z,3.08
2023-02-25T05:23:35.469Z,3.09
2023-02-25T05:26:13.618Z,3.11
2023-02-25T05:28:47.154Z,3.04
2023-02-25T05:31:20.379Z,3.06
2023-02-25T05:33:54.634Z,3.12
2023-02-25T05:36:23.976Z,3.14
2023-02-25T05:39:05.175Z,3.11
2023-02-25T05:41:32.910Z,3.01
2023-02-25T05:44:06.198Z,3.13
2023-02-25T05:46:33.033Z,3.11
2023-02-25T05:49:10.356Z,3.11
2023-02-25T05:51:45.375Z,3.04
2023-02-25T05:54:19.260Z,3.07
2023-02-25T05:56:46.110Z,3.05
2023-02-25T05:59:19.204Z,3.09
2023-02-25T06:01:45.928Z,3.09
2023-02-25T06:04:19.204Z,3.06
2023-02-25T06:06:54.998Z,3.07
2023-02-25T06:09:28.186Z,3.06
2023-02-25T06:11:55.198Z,3.11
2023-02-25T06:14:21.974Z,3.03
2023-02-25T06:16:55.226Z,3.06
2023-02-25T06:19:29.190Z,3.05
2023-02-25T06:22:02.246Z,3.04
2023-02-25T06:24:28.891Z,3.02
2023-02-25T06:27:02.171Z,3.01
2023-02-25T06:29:28.949Z,3.02
2023-02-25T06:32:02.373Z,3.00
2023-02-25T06:34:32.726Z,2.98
2023-02-25T06:36:59.639Z,2.94
2023-02-25T06:39:33.186Z,2.94
2023-02-25T06:42:00.218Z,2.93
2023-02-25T06:44:37.105Z,2.95
2023-02-25T06:47:03.870Z,2.94
2023-02-25T06:49:38.189Z,2.90
2023-02-25T06:52:18.253Z,2.95
2023-02-25T06:54:52.197Z,2.91
2023-02-25T06:57:26.210Z,2.94
2023-02-25T07:00:02.174Z,2.94
2023-02-25T07:02:37.959Z,2.93
2023-02-25T07:05:12.432Z,2.93
2023-02-25T07:07:39.170Z,2.86
2023-02-25T07:10:13.132Z,2.95
2023-02-25T07:12:39.709Z,2.93
2023-02-25T07:15:13.219Z,2.93
2023-02-25T07:17:39.863Z,2.90
2023-02-25T07:20:14.275Z,2.98
2023-02-25T07:22:42.281Z,2.93
2023-02-25T07:25:21.234Z,2.89
2023-02-25T07:27:48.031Z,2.98
2023-02-25T07:30:15.734Z,2.96
2023-02-25T07:32:49.183Z,2.97
2023-02-25T07:35:16.087Z,2.97
2023-02-25T07:37:49.159Z,3.00
2023-02-25T07:40:17.069Z,3.03
2023-02-25T07:42:50.320Z,2.89
2023-02-25T07:45:17.563Z,3.00
2023-02-25T07:47:51.139Z,3.05
2023-02-25T07:50:24.475Z,3.05
2023-02-25T07:52:57.262Z,3.06
2023-02-25T07:55:24.651Z,3.07
2023-02-25T07:57:58.252Z,3.06
2023-02-25T08:00:31.244Z,3.06
2023-02-25T08:02:58.675Z,3.03
2023-02-25T08:05:32.202Z,3.06
2023-02-25T08:07:58.900Z,3.02
2023-02-25T08:10:32.342Z,3.00
2023-02-25T08:12:59.062Z,2.94
2023-02-25T08:15:32.496Z,2.98
2023-02-25T08:17:59.295Z,3.02
2023-02-25T08:20:32.447Z,3.06
2023-02-25T08:22:59.244Z,3.00
2023-02-25T08:25:34.178Z,3.08
2023-02-25T08:28:08.156Z,3.09
2023-02-25T08:30:42.251Z,3.18
2023-02-25T08:33:15.207Z,3.24
2023-02-25T08:35:41.908Z,3.31
2023-02-25T08:38:16.252Z,3.27
2023-02-25T08:40:43.474Z,3.38
2023-02-25T08:43:17.224Z,3.36
2023-02-25T08:45:44.013Z,3.39
2023-02-25T08:48:17.313Z,3.47
2023-02-25T08:50:52.427Z,3.58
2023-02-25T08:53:26.237Z,3.48
2023-02-25T08:55:54.000Z,3.59
2023-02-25T08:58:27.184Z,3.59
2023-02-25T09:00:53.778Z,3.61
2023-02-25T09:03:27.316Z,3.58
2023-02-25T09:06:06.417Z,3.61
2023-02-25T09:08:39.259Z,3.57
2023-02-25T09:11:07.191Z,3.73
2023-02-25T09:13:34.075Z,3.79
2023-02-25T09:16:08.260Z,3.96
2023-02-25T09:18:35.723Z,4.06
2023-02-25T09:21:11.564Z,4.09
2023-02-25T09:23:38.474Z,4.24
2023-02-25T09:26:19.384Z,4.26
2023-02-25T09:28:47.578Z,4.56
2023-02-25T09:31:25.165Z,4.90
2023-02-25T09:33:52.455Z,5.28
2023-02-25T09:36:29.217Z,5.88
2023-02-25T09:38:57.716Z,6.11
2023-02-25T09:41:37.322Z,6.39
2023-02-25T09:44:14.498Z,6.21
2023-02-25T09:46:56.255Z,6.03
2023-02-25T09:50:14.225Z,6.20
2023-02-25T09:52:55.193Z,6.37
2023-02-25T09:55:36.477Z,6.37
2023-02-25T09:58:24.179Z,6.15
2023-02-25T10:01:01.818Z,6.21
2023-02-25T10:04:03.403Z,6.23
2023-02-25T10:06:42.479Z,5.90
2023-02-25T10:09:35.234Z,5.48
2023-02-25T10:12:13.374Z,5.71
2023-02-25T10:14:55.306Z,6.02
2023-02-25T10:17:24.860Z,6.29
2023-02-25T10:20:25.446Z,6.41
2023-02-25T10:23:36.918Z,6.78
2023-02-25T10:26:40.586Z,7.10
2023-02-25T10:29:15.646Z,7.23
2023-02-25T10:31:52.459Z,7.03
2023-02-25T10:34:26.377Z,6.57
2023-02-25T10:37:05.292Z,6.20
2023-02-25T10:39:32.363Z,5.81
2023-02-25T10:42:05.258Z,5.59
2023-02-25T10:44:38.246Z,5.38
2023-02-25T10:47:13.265Z,5.56
2023-02-25T10:50:45.011Z,5.50
2023-02-25T10:53:24.232Z,5.75
2023-02-25T10:56:09.849Z,6.17
2023-02-25T10:59:12.343Z,6.42
2023-02-25T11:01:48.255Z,5.98
2023-02-25T11:04:27.297Z,5.95
2023-02-25T11:06:54.090Z,6.23
2023-02-25T11:09:27.337Z,6.60
2023-02-25T11:12:03.394Z,6.92
2023-02-25T11:14:38.308Z,7.40
2023-02-25T11:17:12.964Z,7.49
2023-02-25T11:20:07.465Z,7.50
2023-02-25T11:22:43.469Z,7.02
2023-02-25T11:25:24.409Z,6.87
2023-02-25T11:27:58.784Z,6.86
2023-02-25T11:30:43.757Z,7.05
2023-02-25T11:33:33.374Z,7.26
2023-02-25T11:36:14.331Z,7.53
2023-02-25T11:38:49.250Z,7.34
2023-02-25T11:41:22.118Z,7.20
2023-02-25T11:43:56.351Z,7.10
2023-02-25T11:46:37.361Z,7.38
2023-02-25T11:49:22.291Z,7.41
2023-02-25T11:52:25.257Z,7.58
2023-02-25T11:55:09.013Z,7.64
2023-02-25T11:58:16.238Z,7.83
2023-02-25T12:00:53.325Z,7.82
2023-02-25T12:03:41.330Z,8.00
2023-02-25T12:06:41.170Z,7.67
2023-02-25T12:09:30.312Z,7.63
2023-02-25T12:12:18.211Z,7.82
2023-02-25T12:15:06.489Z,8.15
2023-02-25T12:18:25.356Z,8.40
2023-02-25T12:21:22.575Z,8.82
2023-02-25T12:24:14.815Z,8.91
2023-02-25T12:27:25.327Z,8.58
2023-02-25T12:30:03.651Z,8.04
2023-02-25T12:32:42.366Z,7.83
2023-02-25T12:35:41.433Z,7.89
2023-02-25T12:38:24.359Z,7.25
2023-02-25T12:41:16.886Z,7.01
2023-02-25T12:43:59.361Z,6.62
2023-02-25T12:46:47.673Z,6.18
2023-02-25T12:49:42.555Z,6.37
2023-02-25T12:52:26.705Z,6.74
2023-02-25T12:55:21.626Z,7.11
2023-02-25T12:58:36.339Z,7.56
2023-02-25T13:01:48.352Z,7.86
2023-02-25T13:04:40.303Z,7.35
2023-02-25T13:07:22.888Z,7.36
2023-02-25T13:10:15.490Z,7.55
2023-02-25T13:13:00.747Z,7.88
2023-02-25T13:16:05.339Z,8.22
2023-02-25T13:19:07.093Z,8.45
2023-02-25T13:22:16.319Z,8.72
2023-02-25T13:25:21.644Z,9.04
2023-02-25T13:28:05.104Z,8.99
2023-02-25T13:30:56.271Z,8.53
2023-02-25T13:34:03.319Z,7.36
2023-02-25T13:37:11.502Z,7.31
2023-02-25T13:40:01.420Z,7.62
2023-02-25T13:43:19.719Z,8.18
2023-02-25T13:45:56.387Z,8.22
2023-02-25T13:49:04.362Z,8.20
2023-02-25T13:52:21.278Z,8.15
2023-02-25T13:55:06.353Z,8.16
2023-02-25T13:58:10.701Z,7.99
2023-02-25T14:01:16.430Z,8.11
2023-02-25T14:04:06.504Z,8.14
2023-02-25T14:07:17.874Z,8.28
2023-02-25T14:09:50.804Z,8.09
2023-02-25T14:12:38.406Z,8.25
2023-02-25T14:15:41.318Z,8.31
2023-02-25T14:18:36.398Z,8.03
2023-02-25T14:21:42.354Z,7.99
2023-02-25T14:24:31.569Z,8.05
2023-02-25T14:27:35.352Z,7.91
2023-02-25T14:30:18.317Z,8.02
2023-02-25T14:33:29.392Z,7.71
2023-02-25T14:36:28.922Z,7.65
2023-02-25T14:39:44.345Z,7.61
2023-02-25T14:42:36.383Z,7.80
2023-02-25T14:45:12.398Z,7.62
2023-02-25T14:48:01.429Z,7.68
2023-02-25T14:50:46.640Z,7.80
2023-02-25T14:53:45.444Z,7.64
2023-02-25T14:56:51.332Z,7.49
2023-02-25T14:59:59.417Z,7.43
2023-02-25T15:03:23.346Z,7.64
2023-02-25T15:06:23.126Z,7.58
2023-02-25T15:08:56.378Z,7.31
2023-02-25T15:12:13.359Z,7.37
2023-02-25T15:15:05.431Z,7.18
2023-02-25T15:18:10.197Z,7.03
2023-02-25T15:20:48.439Z,6.92
2023-02-25T15:23:17.019Z,6.83
2023-02-25T15:25:50.446Z,6.84
2023-02-25T15:28:29.268Z,6.84
2023-02-25T15:31:05.443Z,6.71
2023-02-25T15:33:42.163Z,6.75
2023-02-25T15:36:22.012Z,6.68
2023-02-25T15:38:54.391Z,6.68
2023-02-25T15:41:34.383Z,6.81
2023-02-25T15:44:19.407Z,7.04
2023-02-25T15:47:25.435Z,7.02
2023-02-25T15:49:59.205Z,6.72
2023-02-25T15:53:09.402Z,6.38
2023-02-25T15:55:39.434Z,5.94
2023-02-25T15:58:32.484Z,5.33
2023-02-25T16:01:05.970Z,4.95
2023-02-25T16:03:43.344Z,4.78
2023-02-25T16:06:45.414Z,4.72
2023-02-25T16:09:24.508Z,4.43
2023-02-25T16:11:57.153Z,4.49
2023-02-25T16:14:40.508Z,4.30
2023-02-25T16:17:26.427Z,4.26
2023-02-25T16:20:05.423Z,4.28
2023-02-25T16:22:32.330Z,4.18
2023-02-25T16:25:08.573Z,4.06
2023-02-25T16:28:18.382Z,4.08
2023-02-25T16:31:18.420Z,3.97
2023-02-25T16:34:00.390Z,3.90
2023-02-25T16:36:43.390Z,3.87
2023-02-25T16:39:20.001Z,3.82
2023-02-25T16:41:54.428Z,3.74
2023-02-25T16:44:33.996Z,3.66
2023-02-25T16:47:09.626Z,3.58
2023-02-25T16:49:49.362Z,3.48
2023-02-25T16:52:39.426Z,3.41
2023-02-25T16:55:19.633Z,3.36
2023-02-25T16:58:14.837Z,3.31
2023-02-25T17:01:21.912Z,3.24
2023-02-25T17:03:55.486Z,3.03
2023-02-25T17:06:23.416Z,3.04
2023-02-25T17:09:13.403Z,2.96
2023-02-25T17:11:56.916Z,2.89
2023-02-25T17:14:31.689Z,2.75
2023-02-25T17:16:59.574Z,2.82
2023-02-25T17:19:33.417Z,2.69
2023-02-25T17:22:00.267Z,2.73
2023-02-25T17:24:37.461Z,2.57
2023-02-25T17:27:13.008Z,2.58
2023-02-25T17:29:46.498Z,2.50
2023-02-25T17:32:24.647Z,2.47
2023-02-25T17:35:02.424Z,2.41
2023-02-25T17:37:37.438Z,2.32
2023-02-25T17:40:08.380Z,2.19
2023-02-25T17:42:48.467Z,2.03
2023-02-25T17:45:41.319Z,1.99
2023-02-25T17:48:30.422Z,1.84
2023-02-25T17:51:10.744Z,1.77
2023-02-25T17:54:02.441Z,1.67
2023-02-25T17:56:38.487Z,1.58
2023-02-25T17:59:34.481Z,1.50
2023-02-25T18:02:24.164Z,1.39
2023-02-25T18:05:02.492Z,1.36
2023-02-25T18:07:39.640Z,1.38
2023-02-25T18:10:29.489Z,1.40
2023-02-25T18:12:56.639Z,1.43
2023-02-25T18:15:33.454Z,1.49
2023-02-25T18:18:03.652Z,1.60
2023-02-25T18:20:43.453Z,1.65
2023-02-25T18:23:24.628Z,1.68
2023-02-25T18:26:26.626Z,1.69
2023-02-25T18:28:55.536Z,1.53
2023-02-25T18:31:29.702Z,1.47
2023-02-25T18:33:56.453Z,1.41
2023-02-25T18:36:32.493Z,1.36
2023-02-25T18:39:04.032Z,1.45
2023-02-25T18:41:38.177Z,1.45
2023-02-25T18:44:13.249Z,1.45
2023-02-25T18:46:53.348Z,1.44
2023-02-25T18:49:20.180Z,1.39
2023-02-25T18:52:12.545Z,1.38
2023-02-25T18:54:41.115Z,1.37
2023-02-25T18:57:25.089Z,1.32
2023-02-25T18:59:53.048Z,1.27
2023-02-25T19:02:37.969Z,1.24
2023-02-25T19:05:07.340Z,1.17
2023-02-25T19:07:47.829Z,1.08
2023-02-25T19:10:24.433Z,1.03
2023-02-25T19:13:00.435Z,0.96
2023-02-25T19:15:33.997Z,1.01
2023-02-25T19:18:01.045Z,0.89
2023-02-25T19:20:34.644Z,0.82
2023-02-25T19:23:11.224Z,0.83
2023-02-25T19:25:42.661Z,0.73
2023-02-25T19:28:16.666Z,0.75
2023-02-25T19:30:44.161Z,0.83
2023-02-25T19:33:18.630Z,0.79
2023-02-25T19:35:45.398Z,0.77
2023-02-25T19:38:16.481Z,0.76
2023-02-25T19:40:54.743Z,0.76
2023-02-25T19:43:28.869Z,0.78
2023-02-25T19:45:55.809Z,0.76
2023-02-25T19:48:29.608Z,0.72
2023-02-25T19:51:02.486Z,0.75
2023-02-25T19:53:36.830Z,0.83
2023-02-25T19:56:10.908Z,0.83
2023-02-25T19:58:44.714Z,0.86
2023-02-25T20:01:12.334Z,0.76
2023-02-25T20:03:39.335Z,0.78
2023-02-25T20:06:17.541Z,0.59
2023-02-25T20:08:46.080Z,0.61
2023-02-25T20:11:12.944Z,0.64
2023-02-25T20:13:46.795Z,0.60
2023-02-25T20:16:20.583Z,0.56
2023-02-25T20:18:51.070Z,0.52
2023-02-25T20:21:28.583Z,0.51
2023-02-25T20:24:04.687Z,0.67
2023-02-25T20:26:33.786Z,0.80
2023-02-25T20:29:07.519Z,0.70
2023-02-25T20:31:35.246Z,0.78
2023-02-25T20:34:08.609Z,0.78
2023-02-25T20:36:45.512Z,0.67
2023-02-25T20:39:37.649Z,0.64
2023-02-25T20:42:20.030Z,0.57
2023-02-25T20:44:58.584Z,0.48
2023-02-25T20:47:26.735Z,0.38
2023-02-25T20:50:01.570Z,0.35
2023-02-25T20:52:50.378Z,0.36
2023-02-25T20:55:23.633Z,0.28
2023-02-25T20:57:52.229Z,0.23
2023-02-25T21:00:20.872Z,0.22
2023-02-25T21:02:59.545Z,0.26
2023-02-25T21:05:33.556Z,0.24
2023-02-25T21:08:00.282Z,0.14
2023-02-25T21:10:27.186Z,0.22
2023-02-25T21:13:00.686Z,0.24
2023-02-25T21:15:27.816Z,0.21
2023-02-25T21:18:01.573Z,0.13
2023-02-25T21:20:28.688Z,0.19
2023-02-25T21:23:01.790Z,0.18
2023-02-25T21:25:31.091Z,0.23
2023-02-25T21:28:05.586Z,0.18
2023-02-25T21:30:32.801Z,0.23
2023-02-25T21:32:59.867Z,0.24
2023-02-25T21:35:33.790Z,0.17
2023-02-25T21:38:00.932Z,0.26
2023-02-25T21:40:35.220Z,0.26
2023-02-25T21:43:02.266Z,0.27
2023-02-25T21:45:36.037Z,0.29
2023-02-25T21:48:02.850Z,0.32
2023-02-25T21:50:36.624Z,0.33
2023-02-25T21:53:10.366Z,0.38
2023-02-25T21:55:43.587Z,0.38
2023-02-25T21:58:11.762Z,0.49
2023-02-25T22:00:45.787Z,0.54
2023-02-25T22:03:12.535Z,0.58
2023-02-25T22:05:52.115Z,0.60
2023-02-25T22:08:18.915Z,0.58
2023-02-25T22:10:53.652Z,0.60
2023-02-25T22:13:26.635Z,0.63
2023-02-25T22:16:01.129Z,0.55
2023-02-25T22:18:34.762Z,0.58
2023-02-25T22:21:20.447Z,0.53
2023-02-25T22:23:55.602Z,0.30
2023-02-25T22:26:32.590Z,0.38
2023-02-25T22:29:08.593Z,0.19
2023-02-25T22:31:35.695Z,0.17
2023-02-25T22:34:10.751Z,0.10
2023-02-25T22:36:37.743Z,0.00
2023-02-25T22:39:13.662Z,-0.09
2023-02-25T22:41:40.805Z,-0.13
2023-02-25T22:44:14.579Z,-0.08
2023-02-25T22:46:41.819Z,-0.16
2023-02-25T22:49:18.503Z,-0.08
2023-02-25T22:51:54.579Z,-0.09
2023-02-25T22:54:34.721Z,-0.05
2023-02-25T22:57:01.685Z,-0.05
2023-02-25T22:59:35.651Z,-0.08
2023-02-25T23:02:02.916Z,-0.08
2023-02-25T23:04:36.682Z,-0.01
2023-02-25T23:07:03.456Z,0.00
2023-02-25T23:09:30.876Z,0.05
2023-02-25T23:12:05.423Z,0.07
2023-02-25T23:14:34.500Z,0.04
2023-02-25T23:17:09.109Z,0.13
2023-02-25T23:19:36.072Z,0.13
2023-02-25T23:22:16.654Z,0.21
2023-02-25T23:24:43.409Z,0.26
2023-02-25T23:27:16.687Z,0.23
2023-02-25T23:29:43.305Z,0.24
2023-02-25T23:32:18.040Z,0.17
2023-02-25T23:34:44.778Z,0.19
2023-02-25T23:37:20.781Z,0.18
2023-02-25T23:39:47.785Z,0.14
2023-02-25T23:42:22.625Z,0.16
2023-02-25T23:44:49.329Z,0.09
2023-02-25T23:47:24.642Z,-0.03
2023-02-25T23:49:51.264Z,-0.08
2023-02-25T23:52:31.670Z,0.03
2023-02-25T23:55:06.952Z,-0.10
2023-02-25T23:57:40.645Z,-0.05
